Time;durP1;ratioP1;P1;durP2;ratioP2;P2;SDS_P1;SDS_P2;PMS_P1;PMS_P2;Temp;Humidity;BMP_temperature;BMP_pressure;BME280_temperature;BME280_humidity;BME280_pressure;Samples;Min_cycle;Max_cycle;Signal;HPM_P1;HPM_P2
2021/07/28 00:01:50;;;;;;;11.60;10.30;;;;;;;;;;829815;71;28799;-76
2021/07/28 00:16:52;;;;;;;12.13;9.67;;;;;;;;;;828237;71;29522;-76
2021/07/28 00:31:53;;;;;;;10.87;9.77;;;;;;;26.82;48.37;94770.27;829538;71;28624;-76
2021/07/28 00:47:04;;;;;;;14.13;9.80;;;;;;;;;;827311;71;31766;-75
2021/07/28 01:02:02;;;;;;;11.00;9.73;;;;;;;26.58;48.67;94761.23;828300;71;32035;-75
2021/07/28 01:17:05;;;;;;;11.07;9.77;;;;;;;;;;834881;71;30828;-77
2021/07/28 01:31:54;;;;;;;9.80;8.97;;;;;;;;;;827807;71;30870;-76
2021/07/28 01:46:47;;;;;;;11.03;10.00;;;;;;;26.52;48.93;94744.45;834950;71;29888;-75
2021/07/28 02:01:49;;;;;;;11.23;10.10;;;;;;;26.49;49.33;94741.96;834106;71;27846;-76
2021/07/28 02:16:51;;;;;;;14.97;11.80;;;;;;;26.36;49.65;94730.05;828341;71;29580;-77
2021/07/28 02:31:44;;;;;;;11.50;10.30;;;;;;;;;;827292;71;32724;-76
2021/07/28 02:46:45;;;;;;;13.23;10.90;;;;;;;26.31;49.98;94741.18;827523;71;33125;-77
2021/07/28 03:02:14;;;;;;;14.50;11.57;;;;;;;26.22;50.24;94756.91;834272;71;32726;-76
2021/07/28 03:17:00;;;;;;;12.27;10.47;;;;;;;26.27;51.25;94753.86;828582;71;29668;-74
2021/07/28 03:32:05;;;;;;;16.30;11.43;;;;;;;26.27;50.83;94749.83;827459;71;33190;-75
2021/07/28 03:46:58;;;;;;;13.40;11.20;;;;;;;26.45;49.74;94744.47;828820;71;29828;-76
2021/07/28 04:01:57;;;;;;;18.70;11.43;;;;;;;26.81;48.98;94747.95;833982;71;30160;-74
2021/07/28 04:16:55;;;;;;;13.40;12.00;;;;;;;;;;829555;71;30178;-75
2021/07/28 04:32:00;;;;;;;14.93;12.50;;;;;;;;;;827461;71;33290;-76
2021/07/28 04:46:55;;;;;;;309.37;223.93;;;;;;;27.19;51.51;94771.20;828366;71;29535;-78
2021/07/28 05:01:52;;;;;;;28.20;25.13;;;;;;;27.20;51.88;94760.60;828330;71;29703;-77
2021/07/28 05:16:58;;;;;;;20.10;16.70;;;;;;;27.10;52.04;94750.61;827253;71;31740;-77
2021/07/28 05:31:56;;;;;;;19.70;16.93;;;;;;;;;;833722;71;31814;-76
2021/07/28 05:46:55;;;;;;;22.43;20.10;;;;;;;26.98;52.95;-6820.19;833921;71;32763;-77
2021/07/28 06:01:58;;;;;;;20.77;18.57;;;;;;;;;;833761;71;33155;-77
2021/07/28 06:16:54;;;;;;;21.07;18.73;;;;;;;27.67;52.29;94738.33;828885;71;33199;-76
2021/07/28 06:31:49;;;;;;;23.97;20.57;;;;;;;27.99;51.45;94750.94;827976;71;32154;-76
2021/07/28 06:46:45;;;;;;;20.80;18.60;;;;;;;28.60;50.02;94748.46;828105;71;29911;-78
2021/07/28 07:01:44;;;;;;;18.90;17.00;;;;;;;29.71;47.11;94754.95;823195;71;27898;-79
2021/07/28 07:16:42;;;;;;;20.70;18.53;;;;;;;30.44;44.96;94735.83;828116;71;29493;-78
2021/07/28 07:31:42;;;;;;;19.67;17.57;;;;;;;30.75;43.98;94725.05;828291;71;30276;-77
2021/07/28 07:46:46;;;;;;;22.30;19.07;;;;;;;31.50;41.48;94724.94;827848;71;32719;-79
2021/07/28 08:01:39;;;;;;;20.07;18.00;;;;;;;31.61;40.84;94726.86;828127;71;29775;-77
2021/07/28 08:16:43;;;;;;;19.70;17.50;;;;;;;32.25;39.68;94715.23;833922;71;32793;-79
2021/07/28 08:31:36;;;;;;;21.23;17.50;;;;;;;32.67;37.84;94699.13;828113;71;29790;-77
2021/07/28 08:46:45;;;;;;;19.53;17.30;;;;;;;32.72;36.40;94708.72;828109;71;30289;-78
2021/07/28 09:02:09;;;;;;;17.53;15.90;;;;;;;32.99;36.09;94694.84;820891;71;30308;-77
2021/07/28 09:17:19;;;;;;;18.93;16.87;;;;;;;33.39;35.68;94694.56;833912;71;32750;-77
2021/07/28 09:32:12;;;;;;;17.43;15.73;;;;;;;33.88;34.69;94679.39;821018;71;33540;-80
2021/07/28 09:47:25;;;;;;;19.33;16.57;;;;;;;34.59;33.54;94661.25;826746;71;32827;-80
2021/07/28 10:02:25;;;;;;;20.03;17.90;;;;;;;34.44;33.19;94648.70;825365;71;33449;-83
2021/07/28 10:17:04;;;;;;;22.73;17.33;;;;;;;35.39;32.03;94643.13;833973;71;32670;-81
2021/07/28 10:31:59;;;;;;;16.20;14.40;;;;;;;36.40;29.66;94640.70;833900;71;32084;-79
2021/07/28 10:46:57;;;;;;;15.80;12.30;;;;;;;36.34;27.54;94624.75;793721;74;30395;-76
2021/07/28 11:17:11;;;;;;;15.83;13.37;;;;;;;37.22;27.91;94600.31;816418;71;32923;-80
2021/07/28 11:31:55;;;;;;;16.50;14.80;;;;;;;37.59;27.56;94587.16;819892;71;33195;-78
2021/07/28 11:46:59;;;;;;;16.23;14.73;;;;;;;37.50;26.45;94563.28;817726;71;33695;-78
2021/07/28 12:02:01;;;;;;;16.97;13.77;;;;;;;37.99;26.64;94549.06;819124;71;33332;-78
2021/07/28 12:16:55;;;;;;;13.93;12.37;;;;;;;36.72;26.89;94517.66;820138;71;31886;-79
2021/07/28 12:32:12;;;;;;;13.43;12.07;;;;;;;37.13;26.67;94518.83;823825;71;32820;-79
2021/07/28 12:47:01;;;;;;;16.50;12.27;;;;;;;36.60;27.14;94507.63;821410;71;32899;-80
2021/07/28 19:46:56;;;;;;;22.27;11.20;;;;;;;29.06;37.11;94508.13;822202;71;32800;-80
2021/07/28 20:02:08;;;;;;;23.07;10.87;;;;;;;28.75;39.20;94494.05;834173;71;33304;-77
2021/07/28 20:16:54;;;;;;;20.53;10.17;;;;;;;28.69;41.77;94486.77;828317;71;32771;-77
2021/07/28 20:31:52;;;;;;;21.70;11.07;;;;;;;28.37;39.78;94489.25;824298;71;30094;-78
2021/07/28 20:46:37;;;;;;;24.67;11.70;;;;;;;27.82;39.59;94473.39;833957;71;29663;-78
2021/07/28 21:02:18;;;;;;;17.83;10.67;;;;;;;27.90;40.40;94495.67;823766;71;32866;-77
2021/07/28 21:17:05;;;;;;;18.50;11.50;;;;;;;28.10;41.30;94506.67;821748;71;29730;-77
2021/07/28 21:32:29;;;;;;;18.63;12.00;;;;;;;28.11;41.94;94500.88;824553;71;29663;-81
2021/07/28 21:47:07;;;;;;;19.50;11.57;;;;;;;27.85;39.36;94483.36;822016;71;33207;-77
2021/07/28 22:02:04;;;;;;;24.63;11.70;;;;;;;27.96;40.21;94484.08;821706;71;30827;-76
2021/07/28 22:17:09;;;;;;;18.97;11.67;;;;;;;27.75;39.42;94493.66;827517;71;32753;-76
2021/07/28 22:32:11;;;;;;;14.30;10.20;;;;;;;;;;827713;71;32775;-77
2021/07/28 22:33:14;;;;;;;14.83;10.20;;;;;;;;;;809009;73;26973;-76
2021/07/28 22:47:26;;;;;;;13.73;10.40;;;;;;;27.83;40.76;94495.73;827957;71;33212;-77
2021/07/28 23:17:02;;;;;;;17.17;10.83;;;;;;;27.71;40.99;94462.67;833803;71;32727;-77
2021/07/28 23:32:04;;;;;;;17.60;11.00;;;;;;;27.73;41.49;94472.48;827400;71;32723;-77
2021/07/28 23:47:07;;;;;;;13.47;10.07;;;;;;;27.66;41.89;94478.55;833883;71;32768;-78
